Time;durP1;ratioP1;P1;durP2;ratioP2;P2;SDS_P1;SDS_P2;PMS_P1;PMS_P2;Temp;Humidity;BMP_temperature;BMP_pressure;BME280_temperature;BME280_humidity;BME280_pressure;Samples;Min_cycle;Max_cycle;Signal;HPM_P1;HPM_P2
2022/01/18 00:01:17;;;;;;;17.50;3.83;;;;;;;;;;5096514;28;20448;-73
2022/01/18 00:03:45;;;;;;;12.23;2.73;;;;;;;;;;5096931;28;20448;-73
2022/01/18 00:06:13;;;;;;;16.80;3.40;;;;;;;;;;5094905;28;20763;-72
2022/01/18 00:08:41;;;;;;;14.07;3.67;;;;;;;;;;5096820;28;20452;-73
2022/01/18 00:11:13;;;;;;;20.57;3.70;;;;;;;;;;5096851;28;20456;-73
2022/01/18 00:13:43;;;;;;;12.97;2.83;;;;;;;;;;5096591;28;20487;-73
2022/01/18 00:16:27;;;;;;;23.23;4.73;;;;;;;;;;5096225;28;20914;-73
2022/01/18 00:18:59;;;;;;;16.13;3.40;;;;;;;;;;5076124;28;20801;-73
2022/01/18 00:21:37;;;;;;;13.90;3.23;;;;;;;;;;5076743;28;20461;-73
2022/01/18 00:24:07;;;;;;;11.47;3.27;;;;;;;;;;5076309;28;20459;-73
2022/01/18 00:26:35;;;;;;;12.57;2.47;;;;;;;;;;5095878;28;20485;-73
2022/01/18 00:29:07;;;;;;;9.13;2.80;;;;;;;;;;5096950;28;20451;-72
2022/01/18 00:32:03;;;;;;;10.40;2.53;;;;;;;;;;5095640;28;20463;-73
2022/01/18 00:34:35;;;;;;;6.00;2.50;;;;;;;;;;5096762;28;20523;-72
2022/01/18 00:37:25;;;;;;;10.83;2.97;;;;;;;;;;5095342;28;20447;-72
2022/01/18 00:39:52;;;;;;;12.13;2.53;;;;;;;;;;5096251;28;20444;-74
2022/01/18 00:42:20;;;;;;;7.90;2.70;;;;;;;;;;5096871;28;20444;-73
2022/01/18 00:44:48;;;;;;;6.73;1.50;;;;;;;;;;5096469;28;20579;-73
2022/01/18 00:47:16;;;;;;;6.97;2.47;;;;;;;;;;5096092;28;20456;-73
2022/01/18 00:49:47;;;;;;;18.43;4.97;;;;;;;;;;5096788;28;20953;-72
2022/01/18 00:52:17;;;;;;;9.27;2.40;;;;;;;;;;5095377;28;20455;-73
2022/01/18 00:54:46;;;;;;;13.47;3.40;;;;;;;;;;5096614;28;20458;-73
2022/01/18 00:57:14;;;;;;;8.20;2.50;;;;;;;;;;5096265;28;20459;-73
2022/01/18 00:59:44;;;;;;;11.23;2.10;;;;;;;;;;5096386;28;20444;-73
2022/01/18 01:02:13;;;;;;;8.53;2.00;;;;;;;;;;5097444;28;20714;-73
2022/01/18 01:04:47;;;;;;;12.13;2.07;;;;;;;;;;5097515;28;20794;-73
2022/01/18 01:07:17;;;;;;;7.93;2.63;;;;;;;;;;5096421;28;20545;-73
2022/01/18 01:09:44;;;;;;;12.37;2.43;;;;;;;;;;5096704;28;20455;-73
2022/01/18 01:12:14;;;;;;;6.03;1.97;;;;;;;;;;5096524;28;20460;-73
2022/01/18 01:14:42;;;;;;;18.57;3.00;;;;;;;;;;5096675;28;20444;-73
2022/01/18 01:17:29;;;;;;;15.20;2.60;;;;;;;;;;5096996;28;20455;-73
2022/01/18 01:37:15;;;;;;;13.50;4.47;;;;;;;;;;5098825;28;20424;-72
2022/01/18 01:42:54;;;;;;;6.60;1.70;;;;;;;;;;5100081;28;20426;-72
2022/01/18 01:45:24;;;;;;;11.60;4.13;;;;;;;;;;5099730;28;20910;-72
2022/01/18 01:47:53;;;;;;;16.47;3.00;;;;;;;;;;5100999;28;20538;-73
2022/01/18 01:50:23;;;;;;;10.47;2.07;;;;;;;;;;5100372;28;20512;-73
2022/01/18 01:52:54;;;;;;;10.53;2.70;;;;;;;;;;5101219;28;20486;-73
2022/01/18 01:55:23;;;;;;;8.63;2.13;;;;;;;;;;5100953;28;20475;-73
2022/01/18 01:57:51;;;;;;;10.37;2.70;;;;;;;;;;5100470;28;20512;-74
2022/01/18 02:00:20;;;;;;;20.93;2.23;;;;;;;;;;5100173;28;20788;-73
2022/01/18 02:02:48;;;;;;;7.57;1.50;;;;;;;;;;5100413;28;20460;-73
2022/01/18 02:05:16;;;;;;;4.80;1.53;;;;;;;;;;5100523;28;20560;-73
2022/01/18 02:07:43;;;;;;;11.33;2.17;;;;;;;;;;5100802;28;21057;-73
2022/01/18 02:10:11;;;;;;;6.93;1.60;;;;;;;;;;5099632;28;20678;-73
2022/01/18 02:12:40;;;;;;;6.90;1.80;;;;;;;;;;5100864;28;20443;-73
2022/01/18 02:15:13;;;;;;;10.23;3.10;;;;;;;;;;5100910;28;20482;-73
2022/01/18 02:23:23;;;;;;;12.07;2.70;;;;;;;;;;5100736;28;20427;-73
2022/01/18 02:25:51;;;;;;;13.87;2.40;;;;;;;;;;5099838;28;20492;-73
2022/01/18 02:28:19;;;;;;;5.77;1.63;;;;;;;;;;5099532;28;20742;-73
2022/01/18 02:30:47;;;;;;;8.00;2.97;;;;;;;;;;5099433;28;20521;-73
2022/01/18 02:33:15;;;;;;;11.80;3.03;;;;;;;;;;5099924;28;20448;-73
2022/01/18 02:35:49;;;;;;;8.70;1.70;;;;;;;;;;5092668;28;20536;-73
2022/01/18 02:38:18;;;;;;;8.67;2.20;;;;;;;;;;5083320;28;20468;-72
2022/01/18 02:40:51;;;;;;;10.10;3.23;;;;;;;;;;5079622;28;20464;-73
2022/01/18 02:46:03;;;;;;;6.90;1.67;;;;;;;;;;5098538;28;20748;-73
2022/01/18 02:48:32;;;;;;;10.63;1.90;;;;;;;;;;5098587;28;20457;-73
2022/01/18 02:51:01;;;;;;;7.83;2.13;;;;;;;;;;5099052;28;20855;-73
2022/01/18 02:53:30;;;;;;;5.23;1.43;;;;;;;;;;5081710;28;20549;-73
2022/01/18 02:56:00;;;;;;;5.60;1.40;;;;;;;;;;5085216;28;20456;-73
2022/01/18 02:58:31;;;;;;;2.90;1.37;;;;;;;;;;5097571;28;20633;-73
2022/01/18 03:03:54;;;;;;;25.67;4.37;;;;;;;;;;5097718;28;20423;-73
2022/01/18 03:06:24;;;;;;;3.77;1.63;;;;;;;;;;5097282;28;20518;-73
2022/01/18 03:08:52;;;;;;;18.77;3.00;;;;;;;;;;5098164;28;20458;-73
2022/01/18 03:11:20;;;;;;;10.93;1.73;;;;;;;;;;5097399;28;20723;-74
2022/01/18 03:13:50;;;;;;;5.03;1.13;;;;;;;;;;5097809;28;20540;-73
2022/01/18 03:16:19;;;;;;;12.23;1.97;;;;;;;;;;5096604;28;20455;-74
2022/01/18 03:18:49;;;;;;;11.37;3.77;;;;;;;;;;5097391;28;20523;-72
2022/01/18 03:21:22;;;;;;;4.87;1.57;;;;;;;;;;5098080;28;20495;-74
2022/01/18 03:23:55;;;;;;;4.50;1.70;;;;;;;;;;5097523;28;20535;-73
2022/01/18 03:26:31;;;;;;;3.40;1.00;;;;;;;;;;5097006;28;20582;-72
2022/01/18 03:28:59;;;;;;;5.80;2.10;;;;;;;;;;5097088;28;20531;-72
2022/01/18 03:31:29;;;;;;;8.83;2.13;;;;;;;;;;5097491;28;20849;-74
2022/01/18 03:33:57;;;;;;;4.27;1.50;;;;;;;;;;5096010;28;20448;-73
2022/01/18 03:36:24;;;;;;;14.40;2.07;;;;;;;;;;5097715;28;20466;-74
2022/01/18 03:38:53;;;;;;;7.93;2.10;;;;;;;;;;5097227;28;20452;-74
2022/01/18 03:41:26;;;;;;;10.20;1.90;;;;;;;;;;5097515;28;20459;-72
2022/01/18 03:43:55;;;;;;;11.20;2.13;;;;;;;;;;5097002;28;20463;-74
2022/01/18 03:46:24;;;;;;;16.80;2.23;;;;;;;;;;5097212;28;20475;-73
2022/01/18 03:48:54;;;;;;;4.87;2.20;;;;;;;;;;5095959;28;20471;-72
2022/01/18 03:51:32;;;;;;;13.17;1.67;;;;;;;;;;5096551;28;20440;-72
2022/01/18 03:54:01;;;;;;;12.57;2.20;;;;;;;;;;5096887;28;20939;-75
2022/01/18 03:56:29;;;;;;;8.53;2.10;;;;;;;;;;5096505;28;20512;-74
2022/01/18 03:58:57;;;;;;;5.53;1.70;;;;;;;;;;5096755;28;20436;-72
2022/01/18 04:01:24;;;;;;;10.20;2.23;;;;;;;;;;5096515;28;20440;-73
2022/01/18 04:03:52;;;;;;;5.73;1.77;;;;;;;;;;5097584;28;20953;-73
2022/01/18 04:06:20;;;;;;;16.27;6.43;;;;;;;;;;5097193;28;20808;-73
2022/01/18 04:08:50;;;;;;;5.70;1.57;;;;;;;;;;5097643;28;20503;-73
2022/01/18 04:11:19;;;;;;;3.20;1.03;;;;;;;;;;5097660;28;20540;-73
2022/01/18 04:13:47;;;;;;;3.60;1.23;;;;;;;;;;5096838;28;20452;-73
2022/01/18 04:16:15;;;;;;;3.63;1.00;;;;;;;;;;5096709;28;20470;-73
2022/01/18 04:18:52;;;;;;;8.80;2.40;;;;;;;;;;5096609;28;20812;-73
2022/01/18 04:26:56;;;;;;;7.27;2.97;;;;;;;;;;5096202;28;20490;-73
2022/01/18 04:29:25;;;;;;;4.27;2.03;;;;;;;;;;5097300;28;20487;-73
2022/01/18 04:31:52;;;;;;;12.93;2.30;;;;;;;;;;5096429;28;20439;-73
2022/01/18 04:34:20;;;;;;;7.03;2.20;;;;;;;;;;5095885;28;20771;-73
2022/01/18 04:36:49;;;;;;;12.27;1.97;;;;;;;;;;5097158;28;20447;-73
2022/01/18 04:39:18;;;;;;;5.53;1.90;;;;;;;;;;5096514;28;20456;-73
2022/01/18 04:41:47;;;;;;;4.17;1.70;;;;;;;;;;5096319;28;20466;-73
2022/01/18 04:49:51;;;;;;;9.40;1.70;;;;;;;;;;5086559;28;20502;-72
2022/01/18 04:52:27;;;;;;;4.43;1.93;;;;;;;;;;5096811;28;20823;-73
2022/01/18 04:55:01;;;;;;;5.00;2.07;;;;;;;;;;5092896;28;20532;-73
2022/01/18 05:00:17;;;;;;;9.23;2.40;;;;;;;;;;5096558;28;20710;-72
2022/01/18 05:02:47;;;;;;;4.30;1.57;;;;;;;;;;5095799;28;20472;-73
2022/01/18 05:05:22;;;;;;;6.63;2.20;;;;;;;;;;5095767;28;20843;-73
2022/01/18 05:07:58;;;;;;;4.93;3.10;;;;;;;;;;5097220;28;20500;-73
2022/01/18 05:10:28;;;;;;;4.27;1.90;;;;;;;;;;5095868;28;20926;-73
2022/01/18 05:13:12;;;;;;;4.40;2.03;;;;;;;;;;5095899;28;20516;-73
2022/01/18 05:15:46;;;;;;;5.10;1.40;;;;;;;;;;5095798;28;20474;-73
2022/01/18 05:23:41;;;;;;;5.47;1.23;;;;;;;;;;5092606;28;20444;-73
2022/01/18 05:26:24;;;;;;;2.80;1.30;;;;;;;;;;5095782;28;20476;-72
2022/01/18 05:28:52;;;;;;;4.50;1.63;;;;;;;;;;5095177;28;20478;-72
2022/01/18 05:31:22;;;;;;;29.50;12.63;;;;;;;;;;5095618;28;20443;-73
2022/01/18 05:33:49;;;;;;;7.67;2.00;;;;;;;;;;5095854;28;20471;-73
2022/01/18 05:36:17;;;;;;;6.20;1.73;;;;;;;;;;5094312;28;20452;-73
2022/01/18 05:38:45;;;;;;;3.00;1.07;;;;;;;;;;5094742;28;20460;-74
2022/01/18 05:41:16;;;;;;;7.20;2.30;;;;;;;;;;5094216;28;20448;-73
2022/01/18 05:43:48;;;;;;;3.80;1.30;;;;;;;;;;5094048;28;20819;-73
2022/01/18 05:46:19;;;;;;;6.30;1.50;;;;;;;;;;5094953;28;20486;-73
2022/01/18 05:49:02;;;;;;;8.77;2.63;;;;;;;;;;5094759;28;20902;-73
2022/01/18 05:51:37;;;;;;;6.03;2.10;;;;;;;;;;5094175;28;20444;-73
2022/01/18 05:54:08;;;;;;;4.10;1.67;;;;;;;;;;5094118;28;20793;-73
2022/01/18 05:56:39;;;;;;;3.60;1.97;;;;;;;;;;5094423;28;20497;-72
2022/01/18 05:59:21;;;;;;;4.13;1.50;;;;;;;;;;5093291;28;20451;-73
2022/01/18 06:02:02;;;;;;;8.40;2.97;;;;;;;;;;5094032;28;20477;-73
2022/01/18 06:07:19;;;;;;;2.60;1.33;;;;;;;;;;5088972;28;20474;-72
2022/01/18 06:09:47;;;;;;;6.60;2.67;;;;;;;;;;5097390;28;20452;-72
2022/01/18 06:12:15;;;;;;;5.43;1.73;;;;;;;;;;5096624;28;20881;-73
2022/01/18 06:14:43;;;;;;;3.57;2.60;;;;;;;;;;5095935;28;20460;-73
2022/01/18 06:17:21;;;;;;;7.13;3.83;;;;;;;;;;5096246;28;20498;-73
2022/01/18 06:19:50;;;;;;;6.13;5.60;;;;;;;;;;5096829;28;20463;-74
2022/01/18 06:22:21;;;;;;;6.17;5.57;;;;;;;;;;5095991;28;20928;-74
2022/01/18 06:24:49;;;;;;;10.53;9.93;;;;;;;;;;5096463;28;20443;-74
2022/01/18 06:27:16;;;;;;;12.10;11.27;;;;;;;;;;5096866;28;20482;-73
2022/01/18 06:29:44;;;;;;;11.03;10.23;;;;;;;;;;5096829;28;20447;-73
2022/01/18 06:32:12;;;;;;;7.20;6.70;;;;;;;;;;5096878;28;20443;-73
2022/01/18 06:34:39;;;;;;;10.80;9.90;;;;;;;;;;5096116;28;20521;-73
2022/01/18 06:37:09;;;;;;;15.53;11.80;;;;;;;;;;5095887;28;20727;-73
2022/01/18 06:39:37;;;;;;;11.73;10.93;;;;;;;;;;5095330;28;20448;-74
2022/01/18 06:42:05;;;;;;;16.87;15.60;;;;;;;;;;5095302;28;20460;-74
2022/01/18 06:44:32;;;;;;;18.37;16.63;;;;;;;;;;5094476;28;20470;-74
2022/01/18 06:47:00;;;;;;;46.20;37.53;;;;;;;;;;5095625;28;20920;-74
2022/01/18 06:49:28;;;;;;;40.90;29.07;;;;;;;;;;5096129;28;20724;-74
2022/01/18 06:51:56;;;;;;;16.60;15.30;;;;;;;;;;5095300;28;20455;-73
2022/01/18 06:54:28;;;;;;;18.13;16.57;;;;;;;;;;5095816;28;20530;-72
2022/01/18 06:56:56;;;;;;;20.60;19.30;;;;;;;;;;5096112;28;20710;-73
2022/01/18 06:59:24;;;;;;;6.10;5.40;;;;;;;;;;5095870;28;20863;-73
2022/01/18 07:01:52;;;;;;;10.17;9.37;;;;;;;;;;5095814;28;20457;-72
2022/01/18 07:04:29;;;;;;;18.03;16.47;;;;;;;;;;5096285;28;20448;-72
2022/01/18 07:07:02;;;;;;;17.67;16.17;;;;;;;;;;5094618;28;20923;-73
2022/01/18 07:09:32;;;;;;;30.33;28.13;;;;;;;;;;5097081;28;20448;-72
2022/01/18 07:12:00;;;;;;;30.03;27.47;;;;;;;;;;5095440;28;21164;-72
2022/01/18 07:14:31;;;;;;;198.10;68.97;;;;;;;;;;5095165;28;20516;-73
2022/01/18 07:17:01;;;;;;;150.60;64.87;;;;;;;;;;5095597;28;20460;-73
2022/01/18 07:19:31;;;;;;;74.27;47.43;;;;;;;;;;5095951;28;20448;-73
2022/01/18 07:22:03;;;;;;;88.73;53.27;;;;;;;;;;5075591;28;20465;-73
2022/01/18 07:24:57;;;;;;;119.63;73.20;;;;;;;;;;5091528;28;20451;-74
2022/01/18 07:27:25;;;;;;;109.80;52.57;;;;;;;;;;5095525;28;20479;-73
2022/01/18 07:29:53;;;;;;;197.03;71.73;;;;;;;;;;5092897;28;20487;-74
2022/01/18 07:32:22;;;;;;;154.20;59.50;;;;;;;;;;5095244;28;20776;-73
2022/01/18 07:34:52;;;;;;;135.07;59.20;;;;;;;;;;5095632;28;20479;-73
2022/01/18 07:37:21;;;;;;;126.83;57.20;;;;;;;;;;5094170;28;20730;-73
2022/01/18 07:39:53;;;;;;;129.60;63.50;;;;;;;;;;5095411;28;20455;-74
2022/01/18 07:42:21;;;;;;;137.40;65.57;;;;;;;;;;5095408;28;20524;-73
2022/01/18 07:44:51;;;;;;;59.43;47.47;;;;;;;;;;5095258;28;20770;-73
2022/01/18 07:47:19;;;;;;;74.80;50.93;;;;;;;;;;5094880;28;20480;-73
2022/01/18 07:50:02;;;;;;;60.40;42.10;;;;;;;;;;5094461;28;20456;-74
2022/01/18 07:52:32;;;;;;;67.33;46.33;;;;;;;;;;5078235;28;20448;-73
2022/01/18 07:55:04;;;;;;;76.77;49.50;;;;;;;;;;5095601;28;20452;-73
2022/01/18 07:57:41;;;;;;;51.17;39.47;;;;;;;;;;5094724;28;20443;-73
2022/01/18 08:00:13;;;;;;;67.30;44.37;;;;;;;;;;5092409;28;20475;-73
2022/01/18 08:02:47;;;;;;;51.13;39.27;;;;;;;;;;5095794;28;20478;-74
2022/01/18 08:05:16;;;;;;;77.53;49.50;;;;;;;;;;5084314;28;20448;-73
2022/01/18 08:07:48;;;;;;;91.33;48.67;;;;;;;;;;5095394;28;20907;-72
2022/01/18 08:10:21;;;;;;;54.47;27.33;;;;;;;;;;5089330;28;20455;-74
2022/01/18 08:15:39;;;;;;;15.53;14.27;;;;;;;;;;5091949;28;20448;-73
2022/01/18 08:18:14;;;;;;;16.67;14.83;;;;;;;;;;5094726;28;20435;-74
2022/01/18 08:20:44;;;;;;;15.80;14.33;;;;;;;;;;5090748;28;20899;-74
2022/01/18 08:23:27;;;;;;;19.87;17.30;;;;;;;;;;5094582;28;20520;-74
2022/01/18 08:26:00;;;;;;;23.40;21.40;;;;;;;;;;5094467;28;20454;-73
2022/01/18 08:28:32;;;;;;;21.97;19.87;;;;;;;;;;5091075;28;20473;-73
2022/01/18 08:31:00;;;;;;;22.80;20.80;;;;;;;;;;5092886;28;20460;-73
2022/01/18 08:33:32;;;;;;;33.40;30.17;;;;;;;;;;5092164;28;20465;-72
2022/01/18 08:36:00;;;;;;;90.13;50.90;;;;;;;;;;5094785;28;20490;-73
2022/01/18 08:38:47;;;;;;;81.00;54.60;;;;;;;;;;5089693;28;20945;-73
2022/01/18 08:41:26;;;;;;;149.23;59.80;;;;;;;;;;5076302;28;20448;-73
2022/01/18 08:43:55;;;;;;;64.77;41.57;;;;;;;;;;5092965;28;20467;-73
2022/01/18 08:46:23;;;;;;;55.83;44.30;;;;;;;;;;5073978;28;20460;-74
2022/01/18 08:48:55;;;;;;;46.00;38.37;;;;;;;;;;5091754;28;20479;-73
2022/01/18 08:51:25;;;;;;;42.17;36.77;;;;;;;;;;5095466;28;20764;-74
2022/01/18 08:53:53;;;;;;;33.13;29.63;;;;;;;;;;5083323;28;20527;-73
2022/01/18 08:56:23;;;;;;;28.30;25.60;;;;;;;;;;5092379;28;20518;-74
2022/01/18 08:58:54;;;;;;;28.77;24.53;;;;;;;;;;5081116;28;20450;-73
2022/01/18 09:01:22;;;;;;;24.30;21.70;;;;;;;;;;5093927;28;20534;-74
2022/01/18 09:03:56;;;;;;;22.60;12.30;;;;;;;;;;5093885;28;20454;-74
2022/01/18 09:06:25;;;;;;;18.87;7.83;;;;;;;;;;5094342;28;20463;-73
2022/01/18 09:08:57;;;;;;;16.70;7.90;;;;;;;;;;5093326;28;20487;-74
2022/01/18 09:11:26;;;;;;;23.90;16.23;;;;;;;;;;5094565;28;20528;-74
2022/01/18 09:16:50;;;;;;;16.70;8.03;;;;;;;;;;5092011;28;20448;-73
2022/01/18 09:19:24;;;;;;;9.90;5.30;;;;;;;;;;5094665;28;20452;-74
2022/01/18 09:24:47;;;;;;;18.07;5.97;;;;;;;;;;5082032;28;20496;-74
2022/01/18 09:27:36;;;;;;;9.80;3.80;;;;;;;;;;5064955;28;20481;-75
2022/01/18 09:30:16;;;;;;;15.93;4.00;;;;;;;;;;5066021;28;20476;-74
2022/01/18 09:32:49;;;;;;;31.87;8.10;;;;;;;;;;5053095;28;20809;-73
2022/01/18 09:35:19;;;;;;;16.40;6.30;;;;;;;;;;5073658;28;20495;-74
2022/01/18 09:38:00;;;;;;;14.93;5.03;;;;;;;;;;5073875;28;20709;-76
2022/01/18 09:40:33;;;;;;;14.60;4.30;;;;;;;;;;5076422;28;20456;-74
2022/01/18 09:43:19;;;;;;;21.07;3.90;;;;;;;;;;5077689;28;20483;-73
2022/01/18 09:52:25;;;;;;;13.70;4.77;;;;;;;;;;5153154;27;20363;-74
2022/01/18 09:54:55;;;;;;;13.90;8.37;;;;;;;;;;5132659;27;20442;-74
2022/01/18 09:57:23;;;;;;;18.27;6.07;;;;;;;;;;5133489;27;20743;-74
2022/01/18 09:59:59;;;;;;;11.50;4.57;;;;;;;;;;5128225;27;20486;-75
2022/01/18 10:02:34;;;;;;;10.13;5.33;;;;;;;;;;5144008;27;20522;-74
2022/01/18 10:05:18;;;;;;;18.63;5.03;;;;;;;;;;5129258;27;20445;-73
2022/01/18 10:07:57;;;;;;;19.70;4.53;;;;;;;;;;5130311;27;20458;-75
2022/01/18 10:10:57;;;;;;;35.80;13.73;;;;;;;;;;4749048;27;10879920;-75
2022/01/18 10:16:21;;;;;;;11.90;5.07;;;;;;;;;;5100326;28;20463;-72
2022/01/18 10:19:28;;;;;;;7.10;3.90;;;;;;;;;;5102544;28;20504;-74
2022/01/18 10:22:31;;;;;;;17.20;5.90;;;;;;;;;;5100542;28;20447;-76
2022/01/18 10:25:13;;;;;;;16.10;4.60;;;;;;;;;;5112612;28;20512;-73
2022/01/18 10:27:53;;;;;;;17.17;6.10;;;;;;;;;;5106418;28;20903;-73
2022/01/18 10:30:45;;;;;;;9.33;3.73;;;;;;;;;;5095627;28;20907;-75
2022/01/18 10:33:27;;;;;;;15.67;4.90;;;;;;;;;;5095992;28;20451;-73
2022/01/18 10:36:12;;;;;;;28.33;5.97;;;;;;;;;;5097010;28;20543;-73
2022/01/18 10:45:28;;;;;;;8.93;4.60;;;;;;;;;;5043869;28;20450;-74
2022/01/18 10:48:02;;;;;;;16.43;4.97;;;;;;;;;;5048695;28;20905;-74
2022/01/18 10:50:57;;;;;;;13.80;5.13;;;;;;;;;;5047886;28;20493;-75
2022/01/18 11:00:29;;;;;;;9.27;3.43;;;;;;;;;;5038833;28;20466;-73
2022/01/18 11:03:06;;;;;;;16.53;3.43;;;;;;;;;;5083791;28;20493;-77
2022/01/18 11:11:46;;;;;;;25.13;5.00;;;;;;;;;;5082822;28;20562;-74
2022/01/18 11:14:19;;;;;;;14.87;3.70;;;;;;;;;;5093945;28;20468;-75
2022/01/18 11:16:47;;;;;;;11.40;3.60;;;;;;;;;;5087752;28;20453;-75
2022/01/18 11:19:46;;;;;;;10.53;3.63;;;;;;;;;;5097311;28;20891;-75
2022/01/18 11:22:14;;;;;;;19.77;3.83;;;;;;;;;;5086863;28;20493;-74
2022/01/18 11:24:43;;;;;;;10.07;2.97;;;;;;;;;;5083993;28;20872;-75
2022/01/18 11:27:15;;;;;;;12.67;4.37;;;;;;;;;;5091036;28;20467;-76
2022/01/18 11:38:34;;;;;;;12.90;4.17;;;;;;;;;;5083820;28;20667;-74
2022/01/18 11:44:06;;;;;;;11.87;4.00;;;;;;;;;;5078088;28;21112;-74
2022/01/18 11:52:32;;;;;;;9.40;5.00;;;;;;;;;;5090700;28;20601;-74
2022/01/18 11:55:00;;;;;;;8.30;2.37;;;;;;;;;;5096952;28;20887;-74
2022/01/18 11:57:38;;;;;;;6.87;2.83;;;;;;;;;;5097236;28;20451;-74
2022/01/18 12:00:23;;;;;;;10.20;3.73;;;;;;;;;;5095862;28;20451;-75
2022/01/18 12:03:13;;;;;;;9.57;3.00;;;;;;;;;;5095216;28;20459;-74
2022/01/18 12:05:47;;;;;;;7.03;3.30;;;;;;;;;;5076650;28;20484;-75
2022/01/18 12:11:10;;;;;;;10.47;2.57;;;;;;;;;;5155350;27;20366;-74
2022/01/18 12:13:45;;;;;;;11.93;6.80;;;;;;;;;;5147947;27;20540;-76
2022/01/18 12:16:25;;;;;;;8.80;3.07;;;;;;;;;;5132235;27;20557;-75
2022/01/18 12:18:54;;;;;;;6.87;2.80;;;;;;;;;;5136929;27;20456;-74
2022/01/18 12:21:26;;;;;;;7.23;2.50;;;;;;;;;;5145242;27;20454;-74
2022/01/18 12:26:59;;;;;;;11.53;3.10;;;;;;;;;;5141019;27;20444;-74
2022/01/18 12:35:26;;;;;;;7.67;3.17;;;;;;;;;;5112024;27;20442;-74
2022/01/18 12:38:06;;;;;;;11.27;3.20;;;;;;;;;;5130546;27;20454;-74
2022/01/18 12:40:43;;;;;;;8.33;4.50;;;;;;;;;;5134204;27;20450;-74
2022/01/18 12:45:59;;;;;;;8.97;4.37;;;;;;;;;;5138134;27;20460;-74
2022/01/18 12:48:26;;;;;;;5.10;2.73;;;;;;;;;;5132456;27;20458;-74
2022/01/18 12:50:57;;;;;;;12.30;3.77;;;;;;;;;;5133789;27;20489;-75
2022/01/18 12:53:27;;;;;;;10.80;2.83;;;;;;;;;;5147551;27;20446;-75
2022/01/18 12:56:06;;;;;;;15.37;3.50;;;;;;;;;;5137233;27;20445;-74
2022/01/18 12:58:53;;;;;;;5.70;1.50;;;;;;;;;;5125449;27;20477;-74
2022/01/18 13:04:37;;;;;;;7.77;2.20;;;;;;;;;;5109870;27;20457;-75
2022/01/18 13:07:05;;;;;;;7.37;3.30;;;;;;;;;;5132738;27;20450;-75
2022/01/18 13:09:32;;;;;;;6.60;3.50;;;;;;;;;;5131438;27;20517;-73
2022/01/18 13:12:03;;;;;;;6.73;1.73;;;;;;;;;;5131290;27;20890;-73
2022/01/18 13:14:34;;;;;;;8.80;3.40;;;;;;;;;;5131785;27;20450;-73
2022/01/18 13:23:05;;;;;;;12.93;3.80;;;;;;;;;;5108589;28;20592;-74
2022/01/18 13:25:47;;;;;;;11.87;3.67;;;;;;;;;;5119022;27;20462;-73
2022/01/18 13:31:47;;;;;;;;;;;;;;;;;;;;;
2022/01/18 13:34:55;;;;;;;;;;;;;;;;;;;;;
2022/01/18 13:43:38;;;;;;;15.53;6.50;;;;;;;;;;5048838;28;20498;-74
2022/01/18 13:46:10;;;;;;;6.73;1.77;;;;;;;;;;5096619;28;20469;-73
2022/01/18 13:55:08;;;;;;;8.20;2.37;;;;;;;;;;5106525;28;20466;-74
2022/01/18 14:03:48;;;;;;;12.57;4.80;;;;;;;;;;5011425;28;21200;-74
2022/01/18 14:06:46;;;;;;;12.63;4.00;;;;;;;;;;5012889;28;20548;-73
2022/01/18 14:09:36;;;;;;;11.83;2.47;;;;;;;;;;5085652;28;20486;-73
2022/01/18 14:12:05;;;;;;;6.23;2.50;;;;;;;;;;5098159;28;20457;-72
2022/01/18 14:14:34;;;;;;;3.50;2.10;;;;;;;;;;5098874;28;20459;-73
2022/01/18 14:17:19;;;;;;;5.13;2.27;;;;;;;;;;5098449;28;20471;-73
2022/01/18 14:20:00;;;;;;;5.83;1.50;;;;;;;;;;5104173;27;20588;-74
2022/01/18 14:22:38;;;;;;;7.23;2.53;;;;;;;;;;5113523;27;21657;-73
2022/01/18 14:25:27;;;;;;;6.53;2.17;;;;;;;;;;5117316;27;20443;-74
2022/01/18 14:27:55;;;;;;;8.57;2.80;;;;;;;;;;5117608;27;20447;-72
2022/01/18 14:36:56;;;;;;;4.30;2.53;;;;;;;;;;5050624;28;20558;-74
2022/01/18 14:40:03;;;;;;;;;;;;;;;;;;;;;
2022/01/18 14:46:00;;;;;;;9.83;3.67;;;;;;;;;;5098826;27;20590;-75
2022/01/18 14:48:48;;;;;;;9.63;2.90;;;;;;;;;;5095292;28;20466;-73
2022/01/18 14:51:31;;;;;;;8.77;5.00;;;;;;;;;;5116904;27;20443;-73
2022/01/18 14:54:13;;;;;;;5.93;3.10;;;;;;;;;;5117143;27;20901;-73
2022/01/18 14:56:53;;;;;;;6.27;4.10;;;;;;;;;;5117435;27;20553;-75
2022/01/18 14:59:35;;;;;;;8.70;3.53;;;;;;;;;;5105621;27;20490;-75
2022/01/18 15:02:09;;;;;;;6.90;3.93;;;;;;;;;;5114003;27;20470;-73
2022/01/18 15:04:50;;;;;;;8.33;2.93;;;;;;;;;;5119387;27;20439;-73
2022/01/18 15:07:27;;;;;;;6.37;2.43;;;;;;;;;;5117434;27;20461;-75
2022/01/18 15:09:57;;;;;;;4.27;2.20;;;;;;;;;;5116514;27;20470;-73
2022/01/18 15:12:28;;;;;;;7.40;2.53;;;;;;;;;;5121878;27;20453;-73
2022/01/18 15:14:59;;;;;;;5.30;2.70;;;;;;;;;;5136340;27;20765;-73
2022/01/18 15:17:40;;;;;;;7.27;4.00;;;;;;;;;;5119402;27;20462;-73
2022/01/18 15:20:20;;;;;;;6.73;2.50;;;;;;;;;;5132886;27;20450;-73
2022/01/18 15:23:00;;;;;;;8.30;2.47;;;;;;;;;;5127349;27;20443;-75
2022/01/18 15:25:34;;;;;;;11.97;4.80;;;;;;;;;;5113890;27;20762;-73
2022/01/18 15:31:16;;;;;;;15.07;2.87;;;;;;;;;;5112256;27;20491;-73
2022/01/18 15:34:03;;;;;;;6.57;4.20;;;;;;;;;;5117277;27;20929;-73
2022/01/18 15:43:20;;;;;;;7.27;3.70;;;;;;;;;;5101850;27;20466;-73
2022/01/18 15:45:56;;;;;;;9.63;3.33;;;;;;;;;;5114961;27;20712;-73
2022/01/18 15:49:04;;;;;;;8.70;3.43;;;;;;;;;;5116755;27;20534;-73
2022/01/18 15:55:06;;;;;;;10.00;3.50;;;;;;;;;;5078677;27;20458;-75
2022/01/18 15:58:01;;;;;;;7.10;3.57;;;;;;;;;;5109893;28;20542;-72
2022/01/18 16:00:32;;;;;;;7.97;3.03;;;;;;;;;;5097635;28;20449;-73
2022/01/18 16:03:03;;;;;;;5.90;2.10;;;;;;;;;;5118607;27;20505;-74
2022/01/18 16:08:20;;;;;;;3.60;2.30;;;;;;;;;;5113704;27;21120;-74
2022/01/18 16:11:03;;;;;;;5.17;2.87;;;;;;;;;;5116566;27;20521;-74
2022/01/18 16:13:50;;;;;;;10.60;2.73;;;;;;;;;;5112977;27;20459;-73
2022/01/18 16:19:36;;;;;;;7.00;2.60;;;;;;;;;;5117221;27;20452;-74
2022/01/18 16:25:00;;;;;;;4.73;2.43;;;;;;;;;;5033596;27;1626387;-74
2022/01/18 16:27:44;;;;;;;4.67;3.47;;;;;;;;;;5095336;28;20197;-74
2022/01/18 16:30:19;;;;;;;7.00;4.20;;;;;;;;;;5085575;28;20480;-74
2022/01/18 16:32:47;;;;;;;10.17;4.30;;;;;;;;;;5076187;28;20458;-73
2022/01/18 16:35:20;;;;;;;4.47;3.00;;;;;;;;;;5074907;28;20514;-73
2022/01/18 16:37:50;;;;;;;5.83;3.60;;;;;;;;;;5075617;28;20449;-73
2022/01/18 16:40:19;;;;;;;8.53;3.70;;;;;;;;;;5075656;28;20445;-74
2022/01/18 16:42:55;;;;;;;12.80;4.83;;;;;;;;;;5075123;28;20456;-76
2022/01/18 16:45:37;;;;;;;12.10;3.90;;;;;;;;;;5075451;28;20459;-75
2022/01/18 16:51:18;;;;;;;8.50;3.83;;;;;;;;;;5003619;28;20479;-73
2022/01/18 16:53:50;;;;;;;5.33;3.10;;;;;;;;;;5074096;28;20487;-73
2022/01/18 16:56:24;;;;;;;10.23;3.80;;;;;;;;;;5096316;28;20913;-72
2022/01/18 16:58:53;;;;;;;7.70;3.53;;;;;;;;;;5100130;28;20466;-73
2022/01/18 17:01:25;;;;;;;6.50;2.60;;;;;;;;;;5095055;28;20481;-74
2022/01/18 17:03:53;;;;;;;5.67;3.40;;;;;;;;;;5078766;28;20469;-73
2022/01/18 17:06:23;;;;;;;8.23;4.17;;;;;;;;;;5090304;28;20542;-74
2022/01/18 17:09:15;;;;;;;6.23;3.90;;;;;;;;;;5083938;28;20754;-73
2022/01/18 17:12:03;;;;;;;5.30;2.10;;;;;;;;;;5088138;28;20454;-74
2022/01/18 17:14:33;;;;;;;8.63;3.03;;;;;;;;;;5081024;28;21128;-75
2022/01/18 17:17:04;;;;;;;10.97;4.30;;;;;;;;;;5078444;28;20459;-73
2022/01/18 17:19:36;;;;;;;8.63;4.60;;;;;;;;;;5091260;28;20528;-74
2022/01/18 17:22:06;;;;;;;6.90;3.90;;;;;;;;;;5098169;28;20452;-74
2022/01/18 17:24:37;;;;;;;9.70;4.17;;;;;;;;;;5092095;28;20567;-74
2022/01/18 17:27:07;;;;;;;7.03;3.93;;;;;;;;;;5079539;28;20785;-74
2022/01/18 17:29:59;;;;;;;6.60;2.40;;;;;;;;;;5079682;28;20486;-76
2022/01/18 17:35:42;;;;;;;7.53;3.80;;;;;;;;;;5059535;28;20492;-75
2022/01/18 17:38:10;;;;;;;8.40;3.43;;;;;;;;;;5060160;28;20465;-73
2022/01/18 17:40:44;;;;;;;7.90;3.90;;;;;;;;;;5060851;28;20469;-74
2022/01/18 17:43:17;;;;;;;7.93;3.77;;;;;;;;;;5061565;28;20472;-73
2022/01/18 17:45:48;;;;;;;5.20;2.57;;;;;;;;;;5064539;28;20458;-72
2022/01/18 17:48:22;;;;;;;9.97;3.63;;;;;;;;;;5076822;28;20452;-74
2022/01/18 17:50:53;;;;;;;9.87;3.47;;;;;;;;;;5061422;28;20598;-73
2022/01/18 17:53:22;;;;;;;5.53;3.40;;;;;;;;;;5066494;28;20488;-73
2022/01/18 17:55:54;;;;;;;5.10;3.20;;;;;;;;;;5067948;28;21124;-74
2022/01/18 18:04:15;;;;;;;10.40;4.17;;;;;;;;;;5051230;28;20450;-74
2022/01/18 18:12:18;;;;;;;8.20;3.40;;;;;;;;;;5066574;28;20439;-72
2022/01/18 18:14:49;;;;;;;6.90;1.90;;;;;;;;;;5080923;28;20467;-73
2022/01/18 18:17:31;;;;;;;13.37;5.23;;;;;;;;;;5063719;28;20449;-74
2022/01/18 18:20:08;;;;;;;10.90;3.40;;;;;;;;;;5060918;28;20825;-73
2022/01/18 18:22:44;;;;;;;7.20;3.27;;;;;;;;;;5060183;28;20998;-74
2022/01/18 18:25:17;;;;;;;10.87;5.10;;;;;;;;;;5059398;28;20638;-73
2022/01/18 18:27:53;;;;;;;12.67;5.97;;;;;;;;;;5059654;28;20521;-74
2022/01/18 18:30:48;;;;;;;8.03;4.17;;;;;;;;;;5058503;28;20492;-74
2022/01/18 18:33:18;;;;;;;10.17;3.80;;;;;;;;;;5058797;28;20526;-74
2022/01/18 18:35:47;;;;;;;10.03;5.10;;;;;;;;;;5058415;28;20450;-73
2022/01/18 18:38:19;;;;;;;10.40;4.60;;;;;;;;;;5059192;28;20453;-73